Terminal Aerodrome Forecast
Issued by NWS

Home | Current Version | Previous Version | Text Only | Print | Product List | Glossary On
Versions: 1 2 3 4 5 6 7 8 9 10 11 12 13 14 15 16 17 18 19 20 21 22 23 24 25 26 27 28 29
000
FTUS45 KGGW 231100
TAFOLF
TAF
KOLF 231134Z 2312/2412 10005KT 6SM BR SCT150
     FM231600 10013G17KT P6SM SCT250
     FM240200 09016G23KT P6SM VCTS SCT070CB BKN120
     FM240800 08009KT P6SM BKN200=

USA.gov is the U.S. government's official web portal to all federal, state and local government web resources and services.